sensor_id;sensor_type;location;lat;lon;timestamp;P1;durP1;ratioP1;P2;durP2;ratioP2
1765;SDS011;880;52.452;8.656;2023-04-03T00:01:11;5.05;;;4.15;;
1765;SDS011;880;52.452;8.656;2023-04-03T00:03:38;5.55;;;4.55;;
1765;SDS011;880;52.452;8.656;2023-04-03T00:06:05;5.47;;;4.45;;
1765;SDS011;880;52.452;8.656;2023-04-03T00:08:33;4.18;;;3.80;;
1765;SDS011;880;52.452;8.656;2023-04-03T00:11:01;6.80;;;5.07;;
1765;SDS011;880;52.452;8.656;2023-04-03T00:13:30;4.57;;;3.80;;
1765;SDS011;880;52.452;8.656;2023-04-03T00:15:59;4.47;;;4.07;;
1765;SDS011;880;52.452;8.656;2023-04-03T00:18:26;5.90;;;4.88;;
1765;SDS011;880;52.452;8.656;2023-04-03T00:20:53;4.60;;;4.00;;
1765;SDS011;880;52.452;8.656;2023-04-03T00:23:21;5.35;;;4.15;;
1765;SDS011;880;52.452;8.656;2023-04-03T00:25:51;4.75;;;4.22;;
1765;SDS011;880;52.452;8.656;2023-04-03T00:28:19;7.80;;;4.30;;
1765;SDS011;880;52.452;8.656;2023-04-03T00:30:48;9.18;;;4.05;;
1765;SDS011;880;52.452;8.656;2023-04-03T00:33:17;4.45;;;4.05;;
1765;SDS011;880;52.452;8.656;2023-04-03T00:35:45;5.82;;;3.95;;
1765;SDS011;880;52.452;8.656;2023-04-03T00:38:12;4.82;;;4.05;;
1765;SDS011;880;52.452;8.656;2023-04-03T00:40:41;4.40;;;4.00;;
1765;SDS011;880;52.452;8.656;2023-04-03T00:43:13;3.92;;;3.72;;
1765;SDS011;880;52.452;8.656;2023-04-03T00:45:43;4.57;;;4.15;;
1765;SDS011;880;52.452;8.656;2023-04-03T00:51:16;6.45;;;3.88;;
1765;SDS011;880;52.452;8.656;2023-04-03T00:53:47;4.50;;;3.67;;
1765;SDS011;880;52.452;8.656;2023-04-03T00:56:20;5.82;;;5.30;;
1765;SDS011;880;52.452;8.656;2023-04-03T01:01:25;3.88;;;3.58;;
1765;SDS011;880;52.452;8.656;2023-04-03T01:03:54;4.85;;;4.45;;
1765;SDS011;880;52.452;8.656;2023-04-03T01:06:24;5.20;;;3.65;;
1765;SDS011;880;52.452;8.656;2023-04-03T01:09:03;5.93;;;4.25;;
1765;SDS011;880;52.452;8.656;2023-04-03T01:11:30;3.67;;;3.38;;
1765;SDS011;880;52.452;8.656;2023-04-03T01:14:00;8.38;;;4.55;;
1765;SDS011;880;52.452;8.656;2023-04-03T01:16:28;6.78;;;4.97;;
1765;SDS011;880;52.452;8.656;2023-04-03T01:18:58;4.13;;;3.63;;
1765;SDS011;880;52.452;8.656;2023-04-03T01:24:09;3.85;;;3.55;;
1765;SDS011;880;52.452;8.656;2023-04-03T01:26:51;4.20;;;3.80;;
1765;SDS011;880;52.452;8.656;2023-04-03T01:29:19;8.32;;;4.78;;
1765;SDS011;880;52.452;8.656;2023-04-03T01:31:50;4.00;;;3.53;;
1765;SDS011;880;52.452;8.656;2023-04-03T01:34:23;4.88;;;3.88;;
1765;SDS011;880;52.452;8.656;2023-04-03T01:36:51;4.13;;;3.55;;
1765;SDS011;880;52.452;8.656;2023-04-03T01:39:19;6.25;;;4.05;;
1765;SDS011;880;52.452;8.656;2023-04-03T01:41:47;6.80;;;3.90;;
1765;SDS011;880;52.452;8.656;2023-04-03T01:44:28;4.70;;;3.42;;
1765;SDS011;880;52.452;8.656;2023-04-03T01:46:55;6.60;;;4.38;;
1765;SDS011;880;52.452;8.656;2023-04-03T01:49:23;6.10;;;4.05;;
1765;SDS011;880;52.452;8.656;2023-04-03T01:51:50;4.30;;;3.97;;
1765;SDS011;880;52.452;8.656;2023-04-03T01:54:17;4.50;;;3.95;;
1765;SDS011;880;52.452;8.656;2023-04-03T01:56:44;4.35;;;4.05;;
1765;SDS011;880;52.452;8.656;2023-04-03T01:59:12;5.70;;;5.22;;
1765;SDS011;880;52.452;8.656;2023-04-03T02:01:39;5.63;;;3.83;;
1765;SDS011;880;52.452;8.656;2023-04-03T02:04:06;5.93;;;5.28;;
1765;SDS011;880;52.452;8.656;2023-04-03T02:06:34;3.38;;;3.17;;
1765;SDS011;880;52.452;8.656;2023-04-03T02:09:01;5.85;;;4.82;;
1765;SDS011;880;52.452;8.656;2023-04-03T02:11:29;3.95;;;3.70;;
1765;SDS011;880;52.452;8.656;2023-04-03T02:13:56;4.35;;;3.53;;
1765;SDS011;880;52.452;8.656;2023-04-03T02:16:23;5.10;;;3.80;;
1765;SDS011;880;52.452;8.656;2023-04-03T02:18:50;5.35;;;3.38;;
1765;SDS011;880;52.452;8.656;2023-04-03T02:21:17;5.47;;;4.90;;
1765;SDS011;880;52.452;8.656;2023-04-03T02:23:44;6.38;;;4.30;;
1765;SDS011;880;52.452;8.656;2023-04-03T02:26:12;4.60;;;4.18;;
1765;SDS011;880;52.452;8.656;2023-04-03T02:28:44;3.92;;;3.70;;
1765;SDS011;880;52.452;8.656;2023-04-03T02:31:11;3.80;;;3.40;;
1765;SDS011;880;52.452;8.656;2023-04-03T02:33:40;3.83;;;3.60;;
1765;SDS011;880;52.452;8.656;2023-04-03T02:36:09;5.47;;;3.60;;
1765;SDS011;880;52.452;8.656;2023-04-03T02:38:39;8.05;;;4.18;;
1765;SDS011;880;52.452;8.656;2023-04-03T02:41:09;5.82;;;3.42;;
1765;SDS011;880;52.452;8.656;2023-04-03T02:43:37;7.32;;;5.50;;
1765;SDS011;880;52.452;8.656;2023-04-03T02:46:05;4.97;;;4.22;;
1765;SDS011;880;52.452;8.656;2023-04-03T02:48:33;7.38;;;3.38;;
1765;SDS011;880;52.452;8.656;2023-04-03T02:51:01;4.88;;;3.60;;
1765;SDS011;880;52.452;8.656;2023-04-03T02:53:28;3.70;;;3.40;;
1765;SDS011;880;52.452;8.656;2023-04-03T02:55:55;3.95;;;3.65;;
1765;SDS011;880;52.452;8.656;2023-04-03T02:58:23;5.07;;;3.47;;
1765;SDS011;880;52.452;8.656;2023-04-03T03:00:53;5.43;;;3.65;;
1765;SDS011;880;52.452;8.656;2023-04-03T03:03:20;4.93;;;3.42;;
1765;SDS011;880;52.452;8.656;2023-04-03T03:05:47;4.45;;;3.58;;
1765;SDS011;880;52.452;8.656;2023-04-03T03:08:14;4.03;;;3.42;;
1765;SDS011;880;52.452;8.656;2023-04-03T03:10:41;3.75;;;3.45;;
1765;SDS011;880;52.452;8.656;2023-04-03T03:13:08;3.80;;;3.50;;
1765;SDS011;880;52.452;8.656;2023-04-03T03:15:35;4.22;;;3.97;;
1765;SDS011;880;52.452;8.656;2023-04-03T03:18:02;5.20;;;4.13;;
1765;SDS011;880;52.452;8.656;2023-04-03T03:20:29;6.22;;;3.88;;
1765;SDS011;880;52.452;8.656;2023-04-03T03:22:57;3.70;;;3.22;;
1765;SDS011;880;52.452;8.656;2023-04-03T03:25:24;4.07;;;3.20;;
1765;SDS011;880;52.452;8.656;2023-04-03T03:27:51;5.53;;;4.88;;
1765;SDS011;880;52.452;8.656;2023-04-03T03:30:18;10.63;;;4.88;;
1765;SDS011;880;52.452;8.656;2023-04-03T03:32:46;8.68;;;6.30;;
1765;SDS011;880;52.452;8.656;2023-04-03T03:35:13;10.93;;;7.03;;
1765;SDS011;880;52.452;8.656;2023-04-03T03:37:40;7.53;;;6.50;;
1765;SDS011;880;52.452;8.656;2023-04-03T03:40:07;14.85;;;8.10;;
1765;SDS011;880;52.452;8.656;2023-04-03T03:42:36;16.13;;;8.27;;
1765;SDS011;880;52.452;8.656;2023-04-03T03:45:03;10.18;;;7.03;;
1765;SDS011;880;52.452;8.656;2023-04-03T03:47:31;15.60;;;9.88;;
1765;SDS011;880;52.452;8.656;2023-04-03T03:49:58;8.73;;;6.28;;
1765;SDS011;880;52.452;8.656;2023-04-03T03:52:26;15.63;;;8.98;;
1765;SDS011;880;52.452;8.656;2023-04-03T03:54:53;9.52;;;6.30;;
1765;SDS011;880;52.452;8.656;2023-04-03T03:57:20;12.88;;;7.75;;
1765;SDS011;880;52.452;8.656;2023-04-03T03:59:48;11.10;;;6.53;;
1765;SDS011;880;52.452;8.656;2023-04-03T04:02:17;12.95;;;7.00;;
1765;SDS011;880;52.452;8.656;2023-04-03T04:04:44;9.45;;;5.95;;
1765;SDS011;880;52.452;8.656;2023-04-03T04:07:12;9.32;;;5.93;;
1765;SDS011;880;52.452;8.656;2023-04-03T04:09:40;8.50;;;5.57;;
1765;SDS011;880;52.452;8.656;2023-04-03T04:12:08;7.00;;;5.22;;
1765;SDS011;880;52.452;8.656;2023-04-03T04:14:35;6.20;;;5.68;;
1765;SDS011;880;52.452;8.656;2023-04-03T04:17:04;7.63;;;4.55;;
1765;SDS011;880;52.452;8.656;2023-04-03T04:19:32;8.20;;;5.45;;
1765;SDS011;880;52.452;8.656;2023-04-03T04:21:59;6.38;;;5.10;;
1765;SDS011;880;52.452;8.656;2023-04-03T04:24:27;5.88;;;4.70;;
1765;SDS011;880;52.452;8.656;2023-04-03T04:26:55;5.57;;;4.70;;
1765;SDS011;880;52.452;8.656;2023-04-03T04:29:24;6.88;;;5.68;;
1765;SDS011;880;52.452;8.656;2023-04-03T04:31:52;6.20;;;4.85;;
1765;SDS011;880;52.452;8.656;2023-04-03T04:34:20;7.05;;;5.13;;
1765;SDS011;880;52.452;8.656;2023-04-03T04:36:47;11.43;;;6.20;;
1765;SDS011;880;52.452;8.656;2023-04-03T04:39:15;7.40;;;4.38;;
1765;SDS011;880;52.452;8.656;2023-04-03T04:41:42;5.15;;;4.70;;
1765;SDS011;880;52.452;8.656;2023-04-03T04:44:09;5.95;;;4.82;;
1765;SDS011;880;52.452;8.656;2023-04-03T04:46:37;5.45;;;5.03;;
1765;SDS011;880;52.452;8.656;2023-04-03T04:49:05;6.63;;;6.05;;
1765;SDS011;880;52.452;8.656;2023-04-03T04:51:33;8.43;;;5.35;;
1765;SDS011;880;52.452;8.656;2023-04-03T04:54:15;6.85;;;5.40;;
1765;SDS011;880;52.452;8.656;2023-04-03T04:56:44;10.60;;;6.28;;
1765;SDS011;880;52.452;8.656;2023-04-03T04:59:11;7.88;;;6.80;;
1765;SDS011;880;52.452;8.656;2023-04-03T05:01:38;8.27;;;6.10;;
1765;SDS011;880;52.452;8.656;2023-04-03T05:04:10;9.07;;;7.03;;
1765;SDS011;880;52.452;8.656;2023-04-03T05:06:39;9.38;;;6.75;;
1765;SDS011;880;52.452;8.656;2023-04-03T05:09:11;7.53;;;5.25;;
1765;SDS011;880;52.452;8.656;2023-04-03T05:11:41;9.23;;;5.70;;
1765;SDS011;880;52.452;8.656;2023-04-03T05:14:10;6.35;;;5.80;;
1765;SDS011;880;52.452;8.656;2023-04-03T05:16:38;7.25;;;5.45;;
1765;SDS011;880;52.452;8.656;2023-04-03T05:19:06;5.65;;;5.32;;
1765;SDS011;880;52.452;8.656;2023-04-03T05:21:33;5.93;;;5.43;;
1765;SDS011;880;52.452;8.656;2023-04-03T05:24:05;8.65;;;5.82;;
1765;SDS011;880;52.452;8.656;2023-04-03T05:26:38;9.15;;;7.47;;
1765;SDS011;880;52.452;8.656;2023-04-03T05:29:06;10.90;;;6.25;;
1765;SDS011;880;52.452;8.656;2023-04-03T05:31:33;8.77;;;6.80;;
1765;SDS011;880;52.452;8.656;2023-04-03T05:34:00;11.02;;;6.90;;
1765;SDS011;880;52.452;8.656;2023-04-03T05:36:30;11.20;;;7.55;;
1765;SDS011;880;52.452;8.656;2023-04-03T05:39:01;18.75;;;8.45;;
1765;SDS011;880;52.452;8.656;2023-04-03T05:41:31;7.60;;;6.53;;
1765;SDS011;880;52.452;8.656;2023-04-03T05:43:58;6.72;;;5.70;;
1765;SDS011;880;52.452;8.656;2023-04-03T05:46:25;6.45;;;5.85;;
1765;SDS011;880;52.452;8.656;2023-04-03T05:48:55;6.97;;;4.78;;
1765;SDS011;880;52.452;8.656;2023-04-03T05:51:28;7.45;;;6.25;;
1765;SDS011;880;52.452;8.656;2023-04-03T05:54:16;8.32;;;5.30;;
1765;SDS011;880;52.452;8.656;2023-04-03T05:56:50;7.32;;;5.60;;
1765;SDS011;880;52.452;8.656;2023-04-03T05:59:20;7.85;;;6.82;;
1765;SDS011;880;52.452;8.656;2023-04-03T06:01:50;8.32;;;5.80;;
1765;SDS011;880;52.452;8.656;2023-04-03T06:04:18;9.23;;;5.00;;
1765;SDS011;880;52.452;8.656;2023-04-03T06:09:20;6.07;;;5.68;;
1765;SDS011;880;52.452;8.656;2023-04-03T06:11:50;5.65;;;5.18;;
1765;SDS011;880;52.452;8.656;2023-04-03T06:14:20;6.07;;;5.35;;
1765;SDS011;880;52.452;8.656;2023-04-03T06:16:47;5.60;;;5.10;;
1765;SDS011;880;52.452;8.656;2023-04-03T06:19:14;5.30;;;5.00;;
1765;SDS011;880;52.452;8.656;2023-04-03T06:21:46;6.72;;;6.22;;
1765;SDS011;880;52.452;8.656;2023-04-03T06:24:14;6.45;;;5.13;;
1765;SDS011;880;52.452;8.656;2023-04-03T06:26:42;6.40;;;5.82;;
1765;SDS011;880;52.452;8.656;2023-04-03T06:29:10;6.13;;;5.45;;
1765;SDS011;880;52.452;8.656;2023-04-03T06:31:37;5.38;;;5.18;;
1765;SDS011;880;52.452;8.656;2023-04-03T06:34:04;9.32;;;5.03;;
1765;SDS011;880;52.452;8.656;2023-04-03T06:36:34;5.97;;;5.63;;
1765;SDS011;880;52.452;8.656;2023-04-03T06:39:02;6.20;;;5.60;;
1765;SDS011;880;52.452;8.656;2023-04-03T06:41:29;8.52;;;5.63;;
1765;SDS011;880;52.452;8.656;2023-04-03T06:43:56;6.30;;;5.70;;
1765;SDS011;880;52.452;8.656;2023-04-03T06:46:25;7.85;;;5.47;;
1765;SDS011;880;52.452;8.656;2023-04-03T06:48:53;10.02;;;6.57;;
1765;SDS011;880;52.452;8.656;2023-04-03T06:53:50;7.15;;;6.45;;
1765;SDS011;880;52.452;8.656;2023-04-03T06:56:19;7.43;;;6.70;;
1765;SDS011;880;52.452;8.656;2023-04-03T06:58:47;11.48;;;7.97;;
1765;SDS011;880;52.452;8.656;2023-04-03T07:01:15;7.75;;;7.03;;
1765;SDS011;880;52.452;8.656;2023-04-03T07:03:45;10.38;;;7.55;;
1765;SDS011;880;52.452;8.656;2023-04-03T07:06:14;7.53;;;6.95;;
1765;SDS011;880;52.452;8.656;2023-04-03T07:08:43;6.90;;;6.35;;
1765;SDS011;880;52.452;8.656;2023-04-03T07:11:12;7.45;;;6.95;;
1765;SDS011;880;52.452;8.656;2023-04-03T07:13:39;8.80;;;7.25;;
1765;SDS011;880;52.452;8.656;2023-04-03T07:16:07;6.55;;;6.20;;
1765;SDS011;880;52.452;8.656;2023-04-03T07:18:35;6.88;;;6.40;;
1765;SDS011;880;52.452;8.656;2023-04-03T07:21:03;7.25;;;6.07;;
1765;SDS011;880;52.452;8.656;2023-04-03T07:23:31;6.43;;;6.03;;
1765;SDS011;880;52.452;8.656;2023-04-03T07:26:01;6.85;;;6.35;;
1765;SDS011;880;52.452;8.656;2023-04-03T07:28:28;6.38;;;5.85;;
1765;SDS011;880;52.452;8.656;2023-04-03T07:31:03;5.70;;;5.30;;
1765;SDS011;880;52.452;8.656;2023-04-03T07:33:34;7.88;;;6.03;;
1765;SDS011;880;52.452;8.656;2023-04-03T07:36:02;6.53;;;5.97;;
1765;SDS011;880;52.452;8.656;2023-04-03T07:38:30;6.13;;;5.45;;
1765;SDS011;880;52.452;8.656;2023-04-03T07:40:57;6.93;;;5.57;;
1765;SDS011;880;52.452;8.656;2023-04-03T07:43:24;6.82;;;6.20;;
1765;SDS011;880;52.452;8.656;2023-04-03T07:45:52;6.93;;;6.43;;
1765;SDS011;880;52.452;8.656;2023-04-03T07:48:21;5.88;;;5.53;;
1765;SDS011;880;52.452;8.656;2023-04-03T07:50:51;5.97;;;5.78;;
1765;SDS011;880;52.452;8.656;2023-04-03T07:53:18;7.82;;;7.38;;
1765;SDS011;880;52.452;8.656;2023-04-03T07:55:46;7.35;;;6.88;;
1765;SDS011;880;52.452;8.656;2023-04-03T07:58:16;8.48;;;8.07;;
1765;SDS011;880;52.452;8.656;2023-04-03T08:00:45;7.18;;;6.00;;
1765;SDS011;880;52.452;8.656;2023-04-03T08:03:13;8.30;;;6.07;;
1765;SDS011;880;52.452;8.656;2023-04-03T08:05:44;6.32;;;5.85;;
1765;SDS011;880;52.452;8.656;2023-04-03T08:08:18;7.28;;;6.65;;
1765;SDS011;880;52.452;8.656;2023-04-03T08:10:51;10.73;;;6.85;;
1765;SDS011;880;52.452;8.656;2023-04-03T08:13:20;10.80;;;6.43;;
1765;SDS011;880;52.452;8.656;2023-04-03T08:15:48;6.93;;;6.45;;
1765;SDS011;880;52.452;8.656;2023-04-03T08:18:15;6.60;;;6.20;;
1765;SDS011;880;52.452;8.656;2023-04-03T08:20:43;7.70;;;7.18;;
1765;SDS011;880;52.452;8.656;2023-04-03T08:23:11;7.25;;;6.75;;
1765;SDS011;880;52.452;8.656;2023-04-03T08:25:38;8.00;;;7.28;;
1765;SDS011;880;52.452;8.656;2023-04-03T08:30:38;7.18;;;6.75;;
1765;SDS011;880;52.452;8.656;2023-04-03T08:33:09;6.75;;;6.35;;
1765;SDS011;880;52.452;8.656;2023-04-03T08:35:40;9.70;;;6.25;;
1765;SDS011;880;52.452;8.656;2023-04-03T08:38:08;6.68;;;6.20;;
1765;SDS011;880;52.452;8.656;2023-04-03T08:40:36;6.65;;;6.35;;
1765;SDS011;880;52.452;8.656;2023-04-03T08:43:16;7.30;;;6.68;;
1765;SDS011;880;52.452;8.656;2023-04-03T08:46:01;6.78;;;6.28;;
1765;SDS011;880;52.452;8.656;2023-04-03T08:48:36;8.90;;;8.50;;
1765;SDS011;880;52.452;8.656;2023-04-03T08:51:19;7.22;;;6.60;;
1765;SDS011;880;52.452;8.656;2023-04-03T08:53:52;6.80;;;6.20;;
1765;SDS011;880;52.452;8.656;2023-04-03T08:56:30;7.75;;;6.47;;
1765;SDS011;880;52.452;8.656;2023-04-03T08:59:00;6.13;;;5.75;;
1765;SDS011;880;52.452;8.656;2023-04-03T09:01:35;6.18;;;5.88;;
1765;SDS011;880;52.452;8.656;2023-04-03T09:04:10;8.70;;;8.10;;
1765;SDS011;880;52.452;8.656;2023-04-03T09:07:02;7.82;;;7.07;;
1765;SDS011;880;52.452;8.656;2023-04-03T09:09:40;8.05;;;7.55;;
1765;SDS011;880;52.452;8.656;2023-04-03T09:23:50;6.80;;;6.22;;
1765;SDS011;880;52.452;8.656;2023-04-03T09:26:30;6.65;;;6.07;;
1765;SDS011;880;52.452;8.656;2023-04-03T09:29:05;10.82;;;7.15;;
1765;SDS011;880;52.452;8.656;2023-04-03T09:31:38;7.32;;;6.72;;
1765;SDS011;880;52.452;8.656;2023-04-03T09:36:54;7.40;;;6.90;;
1765;SDS011;880;52.452;8.656;2023-04-03T09:39:25;7.00;;;6.70;;
1765;SDS011;880;52.452;8.656;2023-04-03T09:44:34;7.15;;;6.72;;
1765;SDS011;880;52.452;8.656;2023-04-03T09:52:40;6.70;;;6.30;;
1765;SDS011;880;52.452;8.656;2023-04-03T09:55:19;6.80;;;6.50;;
1765;SDS011;880;52.452;8.656;2023-04-03T10:00:36;7.82;;;7.30;;
1765;SDS011;880;52.452;8.656;2023-04-03T10:03:22;7.55;;;6.93;;
1765;SDS011;880;52.452;8.656;2023-04-03T10:06:03;8.35;;;7.78;;
1765;SDS011;880;52.452;8.656;2023-04-03T10:08:31;7.65;;;7.05;;
1765;SDS011;880;52.452;8.656;2023-04-03T10:11:11;9.00;;;8.45;;
1765;SDS011;880;52.452;8.656;2023-04-03T10:13:49;9.73;;;9.07;;
1765;SDS011;880;52.452;8.656;2023-04-03T10:16:20;10.57;;;8.45;;
1765;SDS011;880;52.452;8.656;2023-04-03T10:19:20;8.30;;;7.85;;
1765;SDS011;880;52.452;8.656;2023-04-03T10:22:46;8.10;;;7.70;;
1765;SDS011;880;52.452;8.656;2023-04-03T10:25:41;7.50;;;7.15;;
1765;SDS011;880;52.452;8.656;2023-04-03T10:31:57;8.30;;;7.78;;
1765;SDS011;880;52.452;8.656;2023-04-03T10:34:49;8.18;;;7.75;;
1765;SDS011;880;52.452;8.656;2023-04-03T10:47:51;7.93;;;7.53;;
1765;SDS011;880;52.452;8.656;2023-04-03T10:50:52;8.43;;;8.00;;
1765;SDS011;880;52.452;8.656;2023-04-03T10:53:39;8.45;;;8.05;;
1765;SDS011;880;52.452;8.656;2023-04-03T10:56:31;8.50;;;7.95;;
1765;SDS011;880;52.452;8.656;2023-04-03T11:02:05;7.88;;;7.47;;
1765;SDS011;880;52.452;8.656;2023-04-03T11:05:04;8.52;;;8.02;;
1765;SDS011;880;52.452;8.656;2023-04-03T11:07:43;9.93;;;9.43;;
1765;SDS011;880;52.452;8.656;2023-04-03T11:10:19;8.88;;;8.48;;
1765;SDS011;880;52.452;8.656;2023-04-03T11:13:01;7.90;;;7.55;;
1765;SDS011;880;52.452;8.656;2023-04-03T11:15:38;7.72;;;7.32;;
1765;SDS011;880;52.452;8.656;2023-04-03T11:18:19;8.85;;;8.45;;
1765;SDS011;880;52.452;8.656;2023-04-03T11:21:04;7.82;;;7.43;;
1765;SDS011;880;52.452;8.656;2023-04-03T11:23:49;9.05;;;8.45;;
1765;SDS011;880;52.452;8.656;2023-04-03T11:26:19;8.85;;;8.43;;
1765;SDS011;880;52.452;8.656;2023-04-03T11:28:59;7.78;;;7.38;;
1765;SDS011;880;52.452;8.656;2023-04-03T11:34:41;10.20;;;9.70;;
1765;SDS011;880;52.452;8.656;2023-04-03T11:40:04;8.15;;;7.72;;
1765;SDS011;880;52.452;8.656;2023-04-03T11:42:48;8.82;;;8.30;;
1765;SDS011;880;52.452;8.656;2023-04-03T11:45:36;9.40;;;8.68;;
1765;SDS011;880;52.452;8.656;2023-04-03T11:51:43;8.80;;;8.30;;
1765;SDS011;880;52.452;8.656;2023-04-03T11:53:54;9.55;;;9.05;;
1765;SDS011;880;52.452;8.656;2023-04-03T11:59:58;11.27;;;10.77;;
1765;SDS011;880;52.452;8.656;2023-04-03T12:02:37;9.02;;;8.63;;
1765;SDS011;880;52.452;8.656;2023-04-03T12:05:27;8.75;;;8.35;;
1765;SDS011;880;52.452;8.656;2023-04-03T12:16:19;8.75;;;8.32;;
1765;SDS011;880;52.452;8.656;2023-04-03T12:38:22;9.65;;;8.57;;
1765;SDS011;880;52.452;8.656;2023-04-03T12:50:13;8.55;;;8.02;;
1765;SDS011;880;52.452;8.656;2023-04-03T12:53:01;9.57;;;8.80;;
1765;SDS011;880;52.452;8.656;2023-04-03T12:55:30;8.13;;;7.72;;
1765;SDS011;880;52.452;8.656;2023-04-03T12:58:12;8.82;;;8.25;;
1765;SDS011;880;52.452;8.656;2023-04-03T13:00:42;8.68;;;8.18;;
1765;SDS011;880;52.452;8.656;2023-04-03T13:03:21;9.30;;;8.57;;
1765;SDS011;880;52.452;8.656;2023-04-03T13:05:54;8.90;;;8.50;;
1765;SDS011;880;52.452;8.656;2023-04-03T13:08:28;10.13;;;9.63;;
1765;SDS011;880;52.452;8.656;2023-04-03T13:13:32;10.55;;;9.70;;
1765;SDS011;880;52.452;8.656;2023-04-03T13:15:59;10.20;;;9.63;;
1765;SDS011;880;52.452;8.656;2023-04-03T13:18:36;9.95;;;9.50;;
1765;SDS011;880;52.452;8.656;2023-04-03T13:21:14;10.10;;;9.70;;
1765;SDS011;880;52.452;8.656;2023-04-03T13:23:47;10.27;;;9.63;;
1765;SDS011;880;52.452;8.656;2023-04-03T13:26:29;10.20;;;9.45;;
1765;SDS011;880;52.452;8.656;2023-04-03T13:29:00;10.20;;;9.43;;
1765;SDS011;880;52.452;8.656;2023-04-03T13:31:35;10.38;;;9.77;;
1765;SDS011;880;52.452;8.656;2023-04-03T13:34:12;9.07;;;8.68;;
1765;SDS011;880;52.452;8.656;2023-04-03T13:41:48;9.98;;;9.07;;
1765;SDS011;880;52.452;8.656;2023-04-03T13:46:48;9.65;;;9.15;;
1765;SDS011;880;52.452;8.656;2023-04-03T13:49:35;8.25;;;7.82;;
1765;SDS011;880;52.452;8.656;2023-04-03T13:54:59;9.07;;;8.57;;
1765;SDS011;880;52.452;8.656;2023-04-03T13:57:35;8.60;;;8.18;;
1765;SDS011;880;52.452;8.656;2023-04-03T14:00:27;8.93;;;8.52;;
1765;SDS011;880;52.452;8.656;2023-04-03T14:03:00;9.82;;;9.23;;
1765;SDS011;880;52.452;8.656;2023-04-03T14:05:28;9.85;;;9.10;;
1765;SDS011;880;52.452;8.656;2023-04-03T14:07:55;8.40;;;8.05;;
1765;SDS011;880;52.452;8.656;2023-04-03T14:10:23;10.73;;;9.93;;
1765;SDS011;880;52.452;8.656;2023-04-03T14:12:50;10.82;;;10.30;;
1765;SDS011;880;52.452;8.656;2023-04-03T14:15:24;10.27;;;9.88;;
1765;SDS011;880;52.452;8.656;2023-04-03T14:17:55;10.27;;;9.70;;
1765;SDS011;880;52.452;8.656;2023-04-03T14:20:23;10.35;;;9.77;;
1765;SDS011;880;52.452;8.656;2023-04-03T14:22:52;9.77;;;9.27;;
1765;SDS011;880;52.452;8.656;2023-04-03T14:25:20;10.45;;;9.85;;
1765;SDS011;880;52.452;8.656;2023-04-03T14:27:50;9.35;;;8.95;;
1765;SDS011;880;52.452;8.656;2023-04-03T14:35:23;9.20;;;8.38;;
1765;SDS011;880;52.452;8.656;2023-04-03T14:37:51;9.73;;;9.32;;
1765;SDS011;880;52.452;8.656;2023-04-03T14:40:29;8.80;;;8.40;;
1765;SDS011;880;52.452;8.656;2023-04-03T14:42:56;9.02;;;8.52;;
1765;SDS011;880;52.452;8.656;2023-04-03T14:45:23;9.30;;;8.80;;
1765;SDS011;880;52.452;8.656;2023-04-03T14:47:51;10.05;;;9.55;;
1765;SDS011;880;52.452;8.656;2023-04-03T14:50:24;9.63;;;9.02;;
1765;SDS011;880;52.452;8.656;2023-04-03T14:52:54;8.88;;;8.48;;
1765;SDS011;880;52.452;8.656;2023-04-03T14:55:24;8.75;;;8.27;;
1765;SDS011;880;52.452;8.656;2023-04-03T14:57:52;9.90;;;9.25;;
1765;SDS011;880;52.452;8.656;2023-04-03T15:00:20;12.65;;;11.45;;
1765;SDS011;880;52.452;8.656;2023-04-03T15:02:48;10.23;;;9.52;;
1765;SDS011;880;52.452;8.656;2023-04-03T15:05:16;9.95;;;9.38;;
1765;SDS011;880;52.452;8.656;2023-04-03T15:07:47;11.20;;;10.60;;
1765;SDS011;880;52.452;8.656;2023-04-03T15:10:22;10.48;;;9.88;;
1765;SDS011;880;52.452;8.656;2023-04-03T15:12:52;9.10;;;8.60;;
1765;SDS011;880;52.452;8.656;2023-04-03T15:15:20;10.10;;;9.60;;
1765;SDS011;880;52.452;8.656;2023-04-03T15:17:50;9.32;;;8.85;;
1765;SDS011;880;52.452;8.656;2023-04-03T15:20:22;9.45;;;8.95;;
1765;SDS011;880;52.452;8.656;2023-04-03T15:22:53;9.35;;;8.85;;
1765;SDS011;880;52.452;8.656;2023-04-03T15:25:23;10.75;;;10.02;;
1765;SDS011;880;52.452;8.656;2023-04-03T15:27:52;9.75;;;9.10;;
1765;SDS011;880;52.452;8.656;2023-04-03T15:30:23;9.00;;;8.57;;
1765;SDS011;880;52.452;8.656;2023-04-03T15:32:50;8.35;;;7.90;;
1765;SDS011;880;52.452;8.656;2023-04-03T15:35:17;9.70;;;9.20;;
1765;SDS011;880;52.452;8.656;2023-04-03T15:37:45;9.20;;;8.73;;
1765;SDS011;880;52.452;8.656;2023-04-03T15:40:12;8.95;;;8.27;;
1765;SDS011;880;52.452;8.656;2023-04-03T15:42:39;8.65;;;8.20;;
1765;SDS011;880;52.452;8.656;2023-04-03T15:45:07;8.60;;;8.10;;
1765;SDS011;880;52.452;8.656;2023-04-03T15:47:34;8.88;;;8.43;;
1765;SDS011;880;52.452;8.656;2023-04-03T15:50:02;8.65;;;8.07;;
1765;SDS011;880;52.452;8.656;2023-04-03T15:52:32;8.43;;;8.02;;
1765;SDS011;880;52.452;8.656;2023-04-03T15:54:59;8.65;;;8.15;;
1765;SDS011;880;52.452;8.656;2023-04-03T15:57:26;9.75;;;9.07;;
1765;SDS011;880;52.452;8.656;2023-04-03T15:59:53;8.52;;;8.13;;
1765;SDS011;880;52.452;8.656;2023-04-03T16:02:20;8.80;;;8.38;;
1765;SDS011;880;52.452;8.656;2023-04-03T16:04:47;9.20;;;8.52;;
1765;SDS011;880;52.452;8.656;2023-04-03T16:07:15;9.45;;;8.88;;
1765;SDS011;880;52.452;8.656;2023-04-03T16:09:42;11.63;;;11.13;;
1765;SDS011;880;52.452;8.656;2023-04-03T16:12:09;9.60;;;9.00;;
1765;SDS011;880;52.452;8.656;2023-04-03T16:14:36;9.18;;;8.48;;
1765;SDS011;880;52.452;8.656;2023-04-03T16:17:03;9.07;;;8.48;;
1765;SDS011;880;52.452;8.656;2023-04-03T16:19:30;8.50;;;8.10;;
1765;SDS011;880;52.452;8.656;2023-04-03T16:21:57;9.05;;;8.55;;
1765;SDS011;880;52.452;8.656;2023-04-03T16:24:24;9.68;;;9.10;;
1765;SDS011;880;52.452;8.656;2023-04-03T16:26:51;9.70;;;9.20;;
1765;SDS011;880;52.452;8.656;2023-04-03T16:29:19;9.10;;;8.50;;
1765;SDS011;880;52.452;8.656;2023-04-03T16:31:46;8.57;;;8.10;;
1765;SDS011;880;52.452;8.656;2023-04-03T16:34:13;9.48;;;9.00;;
1765;SDS011;880;52.452;8.656;2023-04-03T16:36:41;9.52;;;8.93;;
1765;SDS011;880;52.452;8.656;2023-04-03T16:39:08;10.05;;;9.35;;
1765;SDS011;880;52.452;8.656;2023-04-03T16:41:38;10.20;;;9.60;;
1765;SDS011;880;52.452;8.656;2023-04-03T16:44:05;9.48;;;8.98;;
1765;SDS011;880;52.452;8.656;2023-04-03T16:46:33;9.07;;;8.27;;
1765;SDS011;880;52.452;8.656;2023-04-03T16:49:01;8.55;;;8.00;;
1765;SDS011;880;52.452;8.656;2023-04-03T16:51:28;7.88;;;7.45;;
1765;SDS011;880;52.452;8.656;2023-04-03T16:53:55;11.73;;;11.02;;
1765;SDS011;880;52.452;8.656;2023-04-03T16:56:22;9.73;;;9.13;;
1765;SDS011;880;52.452;8.656;2023-04-03T16:58:49;9.70;;;9.20;;
1765;SDS011;880;52.452;8.656;2023-04-03T17:01:18;9.55;;;8.95;;
1765;SDS011;880;52.452;8.656;2023-04-03T17:03:46;10.50;;;9.88;;
1765;SDS011;880;52.452;8.656;2023-04-03T17:06:18;8.93;;;8.52;;
1765;SDS011;880;52.452;8.656;2023-04-03T17:08:47;9.80;;;9.30;;
1765;SDS011;880;52.452;8.656;2023-04-03T17:11:26;9.18;;;8.65;;
1765;SDS011;880;52.452;8.656;2023-04-03T17:13:54;9.57;;;9.10;;
1765;SDS011;880;52.452;8.656;2023-04-03T17:16:22;8.55;;;8.25;;
1765;SDS011;880;52.452;8.656;2023-04-03T17:18:49;9.27;;;8.88;;
1765;SDS011;880;52.452;8.656;2023-04-03T17:21:18;8.18;;;7.78;;
1765;SDS011;880;52.452;8.656;2023-04-03T17:23:47;8.55;;;8.05;;
1765;SDS011;880;52.452;8.656;2023-04-03T17:26:18;10.05;;;9.45;;
1765;SDS011;880;52.452;8.656;2023-04-03T17:28:47;10.10;;;9.50;;
1765;SDS011;880;52.452;8.656;2023-04-03T17:31:14;9.80;;;9.30;;
1765;SDS011;880;52.452;8.656;2023-04-03T17:33:41;9.38;;;8.88;;
1765;SDS011;880;52.452;8.656;2023-04-03T17:36:08;9.68;;;9.18;;
1765;SDS011;880;52.452;8.656;2023-04-03T17:38:35;9.35;;;8.85;;
1765;SDS011;880;52.452;8.656;2023-04-03T17:41:05;10.90;;;10.25;;
1765;SDS011;880;52.452;8.656;2023-04-03T17:43:33;12.75;;;12.05;;
1765;SDS011;880;52.452;8.656;2023-04-03T17:46:02;10.35;;;9.57;;
1765;SDS011;880;52.452;8.656;2023-04-03T17:48:35;9.73;;;9.23;;
1765;SDS011;880;52.452;8.656;2023-04-03T17:51:09;10.27;;;9.68;;
1765;SDS011;880;52.452;8.656;2023-04-03T17:53:38;10.43;;;9.93;;
1765;SDS011;880;52.452;8.656;2023-04-03T17:56:10;10.90;;;10.13;;